Washington, New Hampshire
Current Conditions -  °F | °C
As of 12:35 PM on Thursday 23 Oct 2014 (Local Time) from KEEN Reporting Station
Overcast Overcast  
Wind Chill: 44°   Ceiling: 1300
Heat Index: 48°   Visibility: 10mi
Dew Point: 41°   Wind: 10mph
Humidity: 76%   Direction: 340°NNW
Pressure: 29.74"   Gusts: NA
Location:  43.18°N, 72.1°W
Report Text: KEEN 231635Z AUTO 34009KT 10SM BKN013 OVC020 09/05 A2974 RMK AO1 P0001
Loading
Personal Weather Stations






























Interactive Weather Map
Tropical Storm Tracking
New forecast layout! Learn more

10-Day Weather Forecast

Advertisements
Track Severe Weather on mobile